Time;durP1;ratioP1;P1;durP2;ratioP2;P2;SDS_P1;SDS_P2;PMS_P1;PMS_P2;Temp;Humidity;BMP_temperature;BMP_pressure;BME280_temperature;BME280_humidity;BME280_pressure;Samples;Min_cycle;Max_cycle;Signal;HPM_P1;HPM_P2
2023/09/06 00:00:45;;;;;;;21.25;10.75;;;;;;;19.13;63.13;100453.94;4987043;28;20046;-48
2023/09/06 00:03:13;;;;;;;20.20;11.57;;;;;;;19.10;62.76;100449.66;4987523;28;20054;-44
2023/09/06 00:05:41;;;;;;;21.83;11.32;;;;;;;19.07;63.42;100448.88;4987378;28;20072;-49
2023/09/06 00:08:12;;;;;;;27.65;12.50;;;;;;;19.05;63.38;100455.94;4986598;28;20466;-44
2023/09/06 00:10:41;;;;;;;25.75;11.77;;;;;;;19.01;63.84;100460.41;4987252;28;20053;-52
2023/09/06 00:13:10;;;;;;;22.00;11.57;;;;;;;18.98;63.69;100456.13;4990037;28;20038;-47
2023/09/06 00:15:37;;;;;;;27.88;11.40;;;;;;;18.95;63.40;100456.19;4982802;28;20050;-44
2023/09/06 00:18:06;;;;;;;25.80;12.10;;;;;;;18.94;63.89;100453.63;4982582;28;20525;-51
2023/09/06 00:20:34;;;;;;;26.50;12.27;;;;;;;18.91;63.98;100453.75;4990949;28;20142;-44
2023/09/06 00:23:04;;;;;;;24.92;12.20;;;;;;;18.89;64.32;100445.91;4981790;28;20120;-47
2023/09/06 00:25:32;;;;;;;;;;;;;;;18.65;64.71;100453.63;4985354;28;20516;-48
2023/09/06 00:28:00;;;;;;;24.92;11.23;;;;;;;18.81;64.27;100448.75;4980050;28;19926;-50
2023/09/06 00:30:27;;;;;;;23.15;11.50;;;;;;;18.80;64.11;100454.91;4985805;28;20117;-48
2023/09/06 00:32:54;;;;;;;25.83;11.48;;;;;;;18.78;64.69;100450.63;4987597;28;20455;-48
2023/09/06 00:35:24;;;;;;;25.35;11.68;;;;;;;18.77;64.50;100451.53;4981529;28;20054;-50
2023/09/06 00:37:53;;;;;;;24.88;11.48;;;;;;;18.74;64.44;100448.09;4983009;28;20081;-46
2023/09/06 00:40:22;;;;;;;23.20;11.65;;;;;;;18.73;64.29;100454.25;4981683;28;20046;-43
2023/09/06 00:45:31;;;;;;;22.30;10.68;;;;;;;18.69;64.86;100443.91;5043389;27;20957;-47
2023/09/06 00:47:59;;;;;;;23.88;13.05;;;;;;;18.68;64.67;100445.66;5035273;28;20054;-47
2023/09/06 00:50:26;;;;;;;24.58;13.73;;;;;;;18.66;65.22;100444.84;5037445;28;20052;-47
2023/09/06 00:52:55;;;;;;;27.42;13.82;;;;;;;18.64;64.94;100441.41;5041682;28;20044;-46
2023/09/06 00:55:23;;;;;;;25.23;13.90;;;;;;;18.61;65.28;100444.16;5040693;28;20056;-48
2023/09/06 00:57:50;;;;;;;28.25;13.82;;;;;;;18.60;64.95;100445.03;5042668;28;20056;-50
2023/09/06 01:00:19;;;;;;;24.27;14.00;;;;;;;18.58;64.96;100446.84;5040158;28;20063;-53
2023/09/06 01:02:47;;;;;;;;;;;;;;;18.36;65.00;100442.22;5045422;28;20064;-46
2023/09/06 01:05:16;;;;;;;23.15;11.95;;;;;;;18.52;64.84;100444.41;5051395;28;19928;-44
2023/09/06 01:07:46;;;;;;;20.80;11.75;;;;;;;18.54;65.24;100445.22;5042089;28;20045;-50
2023/09/06 01:10:13;;;;;;;23.45;12.15;;;;;;;18.52;65.69;100449.66;5038152;28;20554;-46
2023/09/06 01:12:41;;;;;;;20.67;11.80;;;;;;;18.49;65.16;100448.84;5039950;28;20053;-49
2023/09/06 01:15:10;;;;;;;22.60;12.25;;;;;;;18.48;65.51;100441.84;5035133;28;20140;-44
2023/09/06 01:17:41;;;;;;;22.30;10.65;;;;;;;18.47;65.34;100450.63;5041331;28;20462;-45
2023/09/06 01:20:29;;;;;;;26.67;13.48;;;;;;;18.39;66.10;100452.63;5040886;28;20057;-46
2023/09/06 01:25:35;;;;;;;28.25;14.80;;;;;;;18.87;66.50;100453.84;5036773;27;20414;-45
2023/09/06 01:28:04;;;;;;;20.52;10.90;;;;;;;18.56;66.37;100456.50;5002089;28;20057;-47
2023/09/06 01:30:31;;;;;;;23.75;11.80;;;;;;;18.48;67.02;100452.34;5007472;28;20044;-46
2023/09/06 01:32:58;;;;;;;22.58;12.25;;;;;;;18.44;66.72;100455.97;5004560;28;20049;-45
2023/09/06 01:35:24;;;;;;;28.67;11.07;;;;;;;18.41;66.30;100456.06;4998377;28;20109;-44
2023/09/06 01:37:51;;;;;;;23.48;11.07;;;;;;;18.39;66.49;100454.38;5001808;28;20038;-42
2023/09/06 01:40:19;;;;;;;26.10;11.73;;;;;;;18.35;67.02;100462.38;5005093;28;20050;-48
2023/09/06 01:42:47;;;;;;;26.10;12.13;;;;;;;18.33;67.27;100463.28;5007330;28;20416;-43
2023/09/06 01:45:17;;;;;;;25.95;12.02;;;;;;;18.32;66.52;100456.34;5000372;28;20058;-48
2023/09/06 01:47:48;;;;;;;23.60;12.18;;;;;;;18.27;66.69;100445.13;5002429;28;20765;-48
2023/09/06 01:50:20;;;;;;;21.92;10.82;;;;;;;18.23;67.12;100453.06;5033180;28;20519;-48
2023/09/06 01:52:47;;;;;;;31.27;12.02;;;;;;;18.24;67.07;100459.19;5000048;28;20487;-47
2023/09/06 01:55:14;;;;;;;23.55;12.93;;;;;;;18.20;67.38;100453.16;4996858;28;20080;-48
2023/09/06 01:57:41;;;;;;;26.83;12.20;;;;;;;18.18;67.13;100454.97;5000854;28;20066;-47
2023/09/06 02:00:27;;;;;;;27.33;12.55;;;;;;;18.15;67.16;100449.81;5003293;28;20046;-48
2023/09/06 02:02:55;;;;;;;93.63;11.98;;;;;;;18.13;67.71;100451.59;4997836;28;20523;-47
2023/09/06 02:05:22;;;;;;;48.10;10.95;;;;;;;18.13;66.95;100445.53;4997715;28;20065;-46
2023/09/06 02:07:50;;;;;;;82.82;12.63;;;;;;;18.13;67.69;100448.13;5000386;28;20050;-42
2023/09/06 02:10:17;;;;;;;79.43;12.48;;;;;;;18.11;67.32;100450.81;5001287;28;20483;-49
2023/09/06 02:12:44;;;;;;;81.72;12.77;;;;;;;18.08;67.13;100443.84;5001801;28;20046;-45
2023/09/06 02:15:14;;;;;;;72.65;11.95;;;;;;;18.07;67.72;100444.72;5001166;28;20046;-44
2023/09/06 02:17:42;;;;;;;45.47;11.55;;;;;;;18.08;67.22;100445.59;5000256;28;20050;-45
2023/09/06 02:20:26;;;;;;;33.95;11.77;;;;;;;18.10;67.58;100443.81;4996259;28;20054;-46
2023/09/06 02:22:55;;;;;;;57.38;13.25;;;;;;;18.10;67.18;100436.81;5001713;28;20046;-43
2023/09/06 02:25:29;;;;;;;83.97;14.57;;;;;;;18.09;67.28;100445.59;4996309;28;20046;-48
2023/09/06 02:27:58;;;;;;;71.60;12.10;;;;;;;18.10;67.35;100446.44;5000190;28;20130;-44
2023/09/06 02:30:24;;;;;;;50.75;12.15;;;;;;;18.08;67.52;100442.97;4996731;28;20143;-44
2023/09/06 02:32:55;;;;;;;88.80;13.35;;;;;;;18.07;68.11;100436.03;5002549;28;20834;-45
2023/09/06 02:35:22;;;;;;;85.13;13.55;;;;;;;18.05;67.91;100437.81;4996533;28;20046;-49
2023/09/06 02:37:50;;;;;;;72.82;12.27;;;;;;;18.01;68.00;100442.31;4983090;28;20054;-43
2023/09/06 02:40:18;;;;;;;61.35;11.73;;;;;;;17.97;67.70;100446.75;4987791;28;20054;-43
2023/09/06 02:42:45;;;;;;;72.70;12.27;;;;;;;17.93;67.19;100437.25;4986058;28;20050;-44
2023/09/06 02:45:12;;;;;;;31.77;12.10;;;;;;;17.94;67.96;100440.75;4993133;28;20070;-46
2023/09/06 02:47:49;;;;;;;77.85;12.82;;;;;;;17.93;67.80;100450.34;4987509;28;20060;-44
2023/09/06 02:50:22;;;;;;;48.33;11.20;;;;;;;17.93;67.33;100458.22;4984895;28;20073;-47
2023/09/06 02:52:53;;;;;;;62.53;11.05;;;;;;;17.92;67.67;100468.75;4987682;28;20046;-44
2023/09/06 02:55:20;;;;;;;33.47;11.95;;;;;;;17.91;67.15;100469.66;4991398;28;20045;-44
2023/09/06 02:57:49;;;;;;;29.35;12.05;;;;;;;17.92;67.20;100469.59;4983417;28;20152;-46
2023/09/06 03:00:24;;;;;;;40.33;13.10;;;;;;;17.94;67.19;100473.03;4982557;28;20051;-45
2023/09/06 03:03:05;;;;;;;45.45;12.25;;;;;;;17.95;67.84;100474.78;4981251;28;20491;-48
2023/09/06 03:05:41;;;;;;;28.27;12.07;;;;;;;17.96;67.64;100473.88;4982159;28;20045;-50
2023/09/06 03:08:10;;;;;;;35.00;11.82;;;;;;;17.98;67.61;100468.59;4983933;28;20539;-47
2023/09/06 03:10:40;;;;;;;26.10;11.30;;;;;;;18.00;67.89;100477.25;4984831;28;20050;-45
2023/09/06 03:13:09;;;;;;;47.20;13.93;;;;;;;18.01;68.19;100478.13;4984850;28;20046;-45
2023/09/06 03:15:36;;;;;;;32.17;12.10;;;;;;;18.02;67.63;100469.34;4984026;28;20046;-49
2023/09/06 03:18:05;;;;;;;37.22;12.63;;;;;;;18.02;67.72;100479.84;4983408;28;20046;-44
2023/09/06 03:20:34;;;;;;;49.03;12.57;;;;;;;18.01;67.34;100481.63;4984143;28;20046;-44
2023/09/06 03:23:16;;;;;;;68.60;11.50;;;;;;;17.97;67.32;100480.81;4984397;28;20069;-43
2023/09/06 03:25:45;;;;;;;50.20;11.63;;;;;;;17.94;67.74;100478.28;4986596;28;20073;-47
2023/09/06 03:28:12;;;;;;;75.20;12.90;;;;;;;17.88;67.61;100474.97;4984886;28;20074;-44
2023/09/06 03:30:39;;;;;;;62.05;11.75;;;;;;;17.84;67.93;100471.56;4987417;28;20141;-44
2023/09/06 03:33:06;;;;;;;49.80;11.52;;;;;;;17.79;67.43;100473.44;4986318;28;20050;-49
2023/09/06 03:35:33;;;;;;;49.55;10.35;;;;;;;17.77;67.69;100464.78;4985930;28;20057;-44
2023/09/06 03:38:00;;;;;;;45.58;10.70;;;;;;;17.73;68.26;100469.22;4985443;28;20050;-48
2023/09/06 03:40:35;;;;;;;71.18;11.82;;;;;;;17.72;68.23;100465.75;4987173;28;20046;-44
2023/09/06 03:43:14;;;;;;;75.10;13.52;;;;;;;17.67;67.99;100472.00;4984507;28;20046;-45
2023/09/06 03:45:44;;;;;;;65.85;12.10;;;;;;;17.66;68.23;100468.53;4983929;28;20111;-46
2023/09/06 03:48:12;;;;;;;84.63;12.52;;;;;;;17.63;68.05;100468.59;4984558;28;20043;-44
2023/09/06 03:50:40;;;;;;;67.35;11.43;;;;;;;17.64;68.40;100474.72;4984369;28;20056;-48
2023/09/06 03:53:07;;;;;;;99.28;12.02;;;;;;;17.62;67.94;100477.38;4985546;28;20139;-48
2023/09/06 03:55:34;;;;;;;92.88;11.25;;;;;;;17.61;68.66;100473.03;4986555;28;20042;-48
2023/09/06 03:58:07;;;;;;;96.40;11.65;;;;;;;17.56;67.89;100470.50;4984711;28;20081;-47
2023/09/06 04:00:34;;;;;;;42.05;9.75;;;;;;;17.55;68.52;100475.78;4987272;28;20042;-50
2023/09/06 04:03:03;;;;;;;33.80;10.07;;;;;;;17.54;68.36;100479.31;4981692;28;20046;-46
2023/09/06 04:05:32;;;;;;;88.78;11.35;;;;;;;17.52;68.70;100475.88;4981295;28;20587;-45
2023/09/06 04:08:00;;;;;;;69.25;9.98;;;;;;;17.50;68.41;100477.69;4982429;28;20054;-47
2023/09/06 04:10:32;;;;;;;63.08;11.25;;;;;;;17.45;68.05;100473.41;4985908;28;20054;-44
2023/09/06 04:12:58;;;;;;;88.65;11.60;;;;;;;17.42;68.58;100475.22;4983364;28;20046;-46
2023/09/06 04:15:25;;;;;;;69.63;10.68;;;;;;;17.39;68.58;100476.16;4985212;28;20714;-47
2023/09/06 04:17:58;;;;;;;42.22;9.98;;;;;;;17.36;68.72;100483.25;4979120;28;20050;-49
2023/09/06 04:20:27;;;;;;;85.93;10.70;;;;;;;17.34;68.77;100488.53;4976535;28;20062;-46
2023/09/06 04:22:55;;;;;;;70.90;9.93;;;;;;;17.31;68.71;100483.34;4978592;28;20054;-45
2023/09/06 04:25:22;;;;;;;57.20;10.23;;;;;;;17.31;68.37;100488.59;4985383;28;20540;-46
2023/09/06 04:27:54;;;;;;;35.00;9.00;;;;;;;17.30;69.13;100489.50;4978645;28;20093;-45
2023/09/06 04:30:23;;;;;;;68.13;10.07;;;;;;;17.29;68.78;100490.41;4980070;28;20520;-44
2023/09/06 04:32:51;;;;;;;32.55;8.48;;;;;;;17.29;69.51;100485.16;4982181;28;20484;-47
2023/09/06 04:35:18;;;;;;;30.70;8.82;;;;;;;17.27;69.39;100479.09;4982624;28;20159;-46
2023/09/06 04:37:45;;;;;;;43.10;8.95;;;;;;;17.27;68.65;100484.31;4985650;28;20141;-47
2023/09/06 04:40:13;;;;;;;34.45;8.63;;;;;;;17.27;69.44;100484.31;4984339;28;20125;-51
2023/09/06 04:42:40;;;;;;;29.73;8.88;;;;;;;17.28;68.99;100483.41;4983493;28;20072;-47
2023/09/06 04:45:10;;;;;;;36.05;8.90;;;;;;;17.30;68.90;100484.25;4978966;28;20042;-50
2023/09/06 04:47:39;;;;;;;38.95;8.75;;;;;;;17.30;68.85;100486.88;4975452;28;20148;-48
2023/09/06 04:50:07;;;;;;;31.70;7.82;;;;;;;17.29;69.50;100479.94;4978871;28;20121;-45
2023/09/06 04:52:43;;;;;;;29.95;7.97;;;;;;;17.29;68.86;100483.38;4982738;28;20050;-45
2023/09/06 04:55:12;;;;;;;22.85;8.35;;;;;;;17.29;68.80;100485.16;4957377;28;20513;-47
2023/09/06 04:57:41;;;;;;;38.20;7.82;;;;;;;17.30;68.65;100486.88;4980372;28;20133;-46
2023/09/06 05:00:15;;;;;;;14.52;7.78;;;;;;;17.26;69.30;100480.84;4986257;28;20512;-44
2023/09/06 05:02:46;;;;;;;26.52;7.53;;;;;;;17.23;68.69;100475.69;4979291;28;20054;-47
2023/09/06 05:05:15;;;;;;;28.73;7.85;;;;;;;17.23;68.60;100477.44;4981764;28;20096;-48
2023/09/06 05:07:42;;;;;;;30.00;7.03;;;;;;;17.21;69.47;100486.19;4982027;28;20046;-48
2023/09/06 05:10:09;;;;;;;40.38;7.43;;;;;;;17.21;68.82;100488.81;4984058;28;20061;-50
2023/09/06 05:12:37;;;;;;;30.48;6.45;;;;;;;17.21;69.09;100490.56;4984830;28;20462;-47
2023/09/06 05:15:05;;;;;;;39.00;8.23;;;;;;;17.21;68.58;100494.06;4980449;28;20053;-47
2023/09/06 05:17:33;;;;;;;18.88;6.95;;;;;;;17.21;69.13;100493.19;4977571;28;20042;-46
2023/09/06 05:20:28;;;;;;;27.50;6.72;;;;;;;17.15;69.28;100498.53;4980959;28;20547;-46
2023/09/06 05:22:56;;;;;;;33.30;7.38;;;;;;;17.23;69.49;100495.75;4980928;28;20058;-48
2023/09/06 05:25:24;;;;;;;73.10;8.30;;;;;;;17.21;68.91;100496.66;4982134;28;20098;-45
2023/09/06 05:27:54;;;;;;;21.60;6.55;;;;;;;17.24;68.63;100502.72;4981547;28;21248;-45
2023/09/06 05:30:21;;;;;;;107.55;9.57;;;;;;;17.21;69.19;100509.75;4978576;28;20050;-48
2023/09/06 05:32:47;;;;;;;42.78;7.50;;;;;;;17.18;68.63;100504.59;4983039;28;20388;-50
2023/09/06 05:35:14;;;;;;;28.83;8.40;;;;;;;17.21;68.88;100504.53;4978413;28;20050;-45
2023/09/06 05:37:41;;;;;;;23.08;7.88;;;;;;;17.23;68.74;100506.25;4984110;28;20053;-47
2023/09/06 05:40:09;;;;;;;46.00;8.18;;;;;;;17.25;68.98;100512.31;4982064;28;20414;-46
2023/09/06 05:42:37;;;;;;;76.75;8.65;;;;;;;17.26;69.47;100508.78;4984077;28;20054;-48
2023/09/06 05:45:04;;;;;;;60.28;7.75;;;;;;;17.25;68.54;100510.53;4983925;28;20042;-47
2023/09/06 05:47:31;;;;;;;77.07;9.02;;;;;;;17.26;68.59;100508.78;4985015;28;20057;-47
2023/09/06 05:49:58;;;;;;;71.07;8.43;;;;;;;17.25;69.32;100509.69;4986105;28;20416;-47
2023/09/06 05:52:24;;;;;;;77.97;8.18;;;;;;;17.27;69.21;100513.13;4986652;28;20054;-47
2023/09/06 05:54:51;;;;;;;61.88;9.27;;;;;;;17.28;69.40;100515.72;4985988;28;20043;-48
2023/09/06 05:57:22;;;;;;;57.65;8.00;;;;;;;17.27;69.69;100518.34;4983597;28;20057;-45
2023/09/06 05:59:48;;;;;;;65.95;8.73;;;;;;;17.25;69.09;100525.41;4985738;28;20058;-44
2023/09/06 06:02:15;;;;;;;74.82;8.25;;;;;;;17.24;69.25;100523.66;4985911;28;20141;-47
2023/09/06 06:04:45;;;;;;;90.78;10.18;;;;;;;17.23;69.95;100528.06;4985301;28;20042;-46
2023/09/06 06:07:13;;;;;;;;;;;;;;;17.04;69.99;100528.44;4984780;28;20058;-46
2023/09/06 06:09:40;;;;;;;53.53;7.18;;;;;;;17.19;69.39;100522.00;4989765;28;19925;-48
2023/09/06 06:12:07;;;;;;;62.65;8.40;;;;;;;17.21;69.60;100528.09;4983352;28;20056;-46
2023/09/06 06:14:36;;;;;;;68.65;9.27;;;;;;;17.25;69.81;100521.00;4985968;28;20042;-44
2023/09/06 06:17:05;;;;;;;72.10;8.45;;;;;;;17.28;69.41;100525.31;4986998;28;20408;-50
2023/09/06 06:19:33;;;;;;;73.82;9.32;;;;;;;17.29;69.44;100524.44;4977188;28;20080;-45
2023/09/06 06:22:01;;;;;;;34.92;7.18;;;;;;;17.30;69.64;100518.28;4985906;28;20141;-47
2023/09/06 06:24:29;;;;;;;32.28;6.82;;;;;;;17.31;70.42;100520.88;4984065;28;20535;-50
2023/09/06 06:26:56;;;;;;;23.08;7.40;;;;;;;17.32;70.64;100527.81;4985561;28;20054;-46
2023/09/06 06:29:23;;;;;;;25.98;7.00;;;;;;;17.34;70.21;100530.41;4983233;28;20846;-48
2023/09/06 06:31:51;;;;;;;34.60;6.47;;;;;;;17.37;70.58;100529.47;4986682;28;20100;-43
2023/09/06 06:34:18;;;;;;;28.27;6.47;;;;;;;17.38;69.66;100531.19;4988255;28;20058;-48
2023/09/06 06:36:46;;;;;;;18.92;6.88;;;;;;;17.40;70.85;100530.28;4980021;28;20047;-46
2023/09/06 06:39:14;;;;;;;38.83;6.65;;;;;;;17.44;70.40;100531.06;4985558;28;20073;-52
2023/09/06 06:41:42;;;;;;;56.33;8.57;;;;;;;17.46;69.93;100530.13;4987158;28;20405;-47
2023/09/06 06:44:09;;;;;;;20.90;7.32;;;;;;;17.47;70.76;100529.22;4986898;28;20046;-46
2023/09/06 06:46:38;;;;;;;22.20;6.72;;;;;;;17.51;70.17;100529.13;4986794;28;20038;-49
2023/09/06 06:49:07;;;;;;;;;;;;;;;17.36;71.06;100531.22;4988510;28;20050;-46
2023/09/06 06:51:38;;;;;;;15.85;6.53;;;;;;;17.54;70.62;100537.81;4988712;28;19997;-48
2023/09/06 06:54:08;;;;;;;23.25;8.23;;;;;;;17.60;69.67;100539.41;4986328;28;20046;-45
2023/09/06 06:56:36;;;;;;;19.48;6.97;;;;;;;17.65;70.67;100545.38;4986030;28;20049;-44
2023/09/06 06:59:03;;;;;;;14.57;7.00;;;;;;;17.70;70.24;100545.28;4980893;28;20061;-52
2023/09/06 07:01:31;;;;;;;21.70;7.18;;;;;;;17.75;69.92;100551.25;4985996;28;20058;-52
2023/09/06 07:03:58;;;;;;;22.58;8.35;;;;;;;17.76;69.94;100546.91;4988561;28;20054;-43
2023/09/06 07:06:26;;;;;;;20.98;7.63;;;;;;;17.81;70.24;100545.00;4986759;28;20079;-51
2023/09/06 07:08:54;;;;;;;17.70;7.85;;;;;;;17.86;70.20;100554.47;4986457;28;20073;-45
2023/09/06 07:11:21;;;;;;;19.70;8.68;;;;;;;17.93;70.51;100557.78;4985228;28;20050;-51
2023/09/06 07:13:49;;;;;;;39.67;8.57;;;;;;;17.97;69.97;100559.44;4984339;28;20488;-43
2023/09/06 07:16:18;;;;;;;17.88;8.20;;;;;;;18.04;70.47;100556.66;4985733;28;20061;-48
2023/09/06 07:18:47;;;;;;;23.25;8.98;;;;;;;18.10;70.49;100567.00;4986476;28;20054;-48
2023/09/06 07:21:15;;;;;;;22.13;8.90;;;;;;;18.13;70.19;100566.94;4987572;28;20060;-46
2023/09/06 07:23:42;;;;;;;21.52;9.07;;;;;;;18.18;70.27;100564.19;4984355;28;20050;-49
2023/09/06 07:26:10;;;;;;;19.65;9.02;;;;;;;18.24;70.46;100569.28;4981862;28;20523;-48
2023/09/06 07:31:14;;;;;;;17.38;7.93;;;;;;;18.38;69.69;100576.78;5016527;27;20418;-43
2023/09/06 07:33:42;;;;;;;20.27;7.72;;;;;;;18.42;69.99;100573.19;4995522;28;20547;-48
2023/09/06 07:36:11;;;;;;;16.45;7.30;;;;;;;18.50;70.16;100581.69;5005490;28;20129;-45
2023/09/06 07:38:37;;;;;;;17.02;7.82;;;;;;;18.56;69.53;100585.91;5003055;28;20077;-45
2023/09/06 07:41:07;;;;;;;16.33;7.80;;;;;;;18.64;69.51;100588.31;4998116;28;20120;-46
2023/09/06 07:43:36;;;;;;;15.52;8.10;;;;;;;18.67;69.61;100588.22;5001627;28;20050;-46
2023/09/06 07:46:06;;;;;;;16.65;10.05;;;;;;;18.73;69.93;100588.06;5020889;28;20451;-49
2023/09/06 07:48:33;;;;;;;17.83;9.07;;;;;;;18.85;69.83;100591.25;5004899;28;20045;-43
2023/09/06 07:51:03;;;;;;;15.30;8.02;;;;;;;18.94;69.59;100595.34;4999307;28;20147;-48
2023/09/06 07:53:31;;;;;;;15.73;8.15;;;;;;;18.99;69.26;100594.31;5001303;28;20076;-50
2023/09/06 07:55:58;;;;;;;16.95;8.05;;;;;;;19.06;68.77;100600.28;5000569;28;20098;-47
2023/09/06 07:58:24;;;;;;;18.52;8.88;;;;;;;19.12;69.36;100594.00;4996511;28;20129;-46
2023/09/06 08:00:54;;;;;;;18.25;8.52;;;;;;;19.18;69.50;100598.22;4988431;28;20042;-49
2023/09/06 08:03:41;;;;;;;17.08;8.20;;;;;;;19.29;68.86;100595.25;4980948;28;20108;-46
2023/09/06 08:06:08;;;;;;;18.85;8.85;;;;;;;19.43;69.00;100603.56;4978628;28;20117;-48
2023/09/06 08:08:34;;;;;;;18.30;8.98;;;;;;;19.59;68.86;100608.34;5013414;28;20046;-46
2023/09/06 08:11:01;;;;;;;21.55;9.73;;;;;;;19.72;68.80;100609.66;4981359;28;20523;-49
2023/09/06 08:13:28;;;;;;;18.35;8.40;;;;;;;19.81;68.90;100602.38;4983323;28;20055;-46
2023/09/06 08:15:54;;;;;;;19.63;9.20;;;;;;;20.13;68.90;100605.75;5001215;28;20050;-48
2023/09/06 08:18:21;;;;;;;18.33;9.02;;;;;;;20.66;68.08;100599.53;4996862;28;20119;-46
2023/09/06 08:20:48;;;;;;;17.55;9.07;;;;;;;20.98;67.73;100607.19;5000682;28;20054;-47
2023/09/06 08:23:14;;;;;;;17.65;9.57;;;;;;;21.21;67.22;100608.06;4998495;28;20050;-48
2023/09/06 08:25:41;;;;;;;16.88;8.90;;;;;;;21.50;66.53;100603.44;5002749;28;20049;-50
2023/09/06 08:28:08;;;;;;;16.42;8.93;;;;;;;21.89;65.70;100608.97;4999687;28;20057;-46
2023/09/06 08:30:35;;;;;;;15.45;9.00;;;;;;;22.21;65.17;100604.09;5002072;28;20041;-50
2023/09/06 08:33:02;;;;;;;16.38;9.27;;;;;;;22.69;64.46;100606.47;5001989;28;20038;-50
2023/09/06 08:35:28;;;;;;;16.30;8.77;;;;;;;23.30;64.31;100614.31;4999862;28;20127;-51
2023/09/06 08:37:55;;;;;;;17.08;9.38;;;;;;;23.86;62.57;100617.78;5002034;28;20058;-48
2023/09/06 08:40:22;;;;;;;17.20;9.20;;;;;;;24.41;62.00;100616.88;5001762;28;20054;-48
2023/09/06 08:42:52;;;;;;;15.95;8.75;;;;;;;24.89;60.94;100617.88;4987223;28;20058;-49
2023/09/06 08:45:22;;;;;;;15.80;8.52;;;;;;;25.34;59.46;100621.66;4985853;28;20046;-46
2023/09/06 08:47:50;;;;;;;16.92;8.50;;;;;;;25.72;57.77;100609.84;5021443;28;20539;-45
2023/09/06 08:50:17;;;;;;;15.20;8.55;;;;;;;25.97;56.94;100619.88;4983271;28;20050;-48
2023/09/06 08:52:44;;;;;;;16.50;8.80;;;;;;;26.25;56.78;100623.56;4990935;28;20058;-45
2023/09/06 08:55:11;;;;;;;13.50;7.90;;;;;;;26.58;55.45;100629.59;4993096;28;20137;-48
2023/09/06 08:57:40;;;;;;;13.15;7.72;;;;;;;26.91;55.31;100631.09;4989873;28;20049;-49
2023/09/06 09:00:09;;;;;;;13.82;8.10;;;;;;;27.26;54.87;100623.69;5014615;28;20053;-47
2023/09/06 09:02:40;;;;;;;14.13;8.07;;;;;;;27.62;53.74;100630.19;4987322;28;20051;-47
2023/09/06 09:05:09;;;;;;;13.50;8.05;;;;;;;27.98;53.38;100633.22;5018560;28;20050;-50
2023/09/06 09:07:49;;;;;;;13.18;8.20;;;;;;;28.33;52.01;100626.47;4968523;28;20055;-46
2023/09/06 09:10:16;;;;;;;15.07;9.48;;;;;;;28.54;51.81;100633.94;5019811;28;20447;-45
2023/09/06 09:12:43;;;;;;;11.98;7.55;;;;;;;28.77;51.33;100626.97;4987328;28;20104;-45
2023/09/06 09:15:10;;;;;;;15.63;8.90;;;;;;;29.07;49.99;100623.09;4988374;28;20043;-49
2023/09/06 09:17:40;;;;;;;13.13;8.48;;;;;;;29.31;49.68;100624.13;4985751;28;20054;-48
2023/09/06 09:20:26;;;;;;;12.10;7.35;;;;;;;29.54;49.77;100625.09;4986526;28;20129;-47
2023/09/06 09:23:01;;;;;;;11.88;8.20;;;;;;;29.75;49.26;100619.13;4988059;28;20407;-49
2023/09/06 09:25:29;;;;;;;11.80;7.15;;;;;;;29.94;48.86;100621.25;4988426;28;20047;-50
2023/09/06 09:27:57;;;;;;;15.02;7.43;;;;;;;30.08;47.98;100622.00;4986909;28;20136;-53
2023/09/06 09:30:27;;;;;;;;;;;;;;;30.29;47.75;100613.34;4988090;28;20728;-49
2023/09/06 09:32:59;;;;;;;12.13;7.70;;;;;;;30.23;47.59;100618.19;4987097;28;20534;-51
2023/09/06 09:35:26;;;;;;;12.75;7.28;;;;;;;30.38;46.86;100612.63;4985776;28;20101;-47
2023/09/06 09:37:53;;;;;;;9.73;6.45;;;;;;;30.47;46.50;100611.91;4989052;28;20134;-49
2023/09/06 09:40:22;;;;;;;10.63;7.15;;;;;;;30.51;45.89;100616.03;4987482;28;20596;-50
2023/09/06 09:43:02;;;;;;;10.77;7.53;;;;;;;30.63;45.58;100616.03;4988021;28;20061;-50
2023/09/06 09:45:38;;;;;;;10.45;6.30;;;;;;;30.71;45.84;100612.75;5002297;28;20093;-47
2023/09/06 09:48:06;;;;;;;10.45;5.88;;;;;;;30.85;45.60;100609.00;4977089;28;20496;-47
2023/09/06 09:50:34;;;;;;;12.82;6.28;;;;;;;31.06;45.19;100610.94;4987786;28;20120;-50
2023/09/06 09:53:07;;;;;;;12.35;7.07;;;;;;;31.17;44.59;100602.88;4982529;28;20058;-48
2023/09/06 09:55:48;;;;;;;9.23;6.28;;;;;;;31.26;44.97;100604.78;4963793;28;20498;-49
2023/09/06 09:58:17;;;;;;;11.20;6.22;;;;;;;31.38;44.63;100610.13;4967852;28;20046;-49
2023/09/06 10:00:44;;;;;;;10.70;6.60;;;;;;;31.40;43.84;100613.53;4968300;28;20090;-48
2023/09/06 10:03:13;;;;;;;11.35;6.38;;;;;;;31.43;44.44;100607.94;4967283;28;20046;-48
2023/09/06 10:05:42;;;;;;;11.70;6.93;;;;;;;31.44;43.33;100609.63;4967605;28;20142;-51
2023/09/06 10:08:10;;;;;;;10.70;6.88;;;;;;;31.39;43.95;100611.84;4964983;28;20047;-45
2023/09/06 10:10:39;;;;;;;10.85;7.15;;;;;;;31.29;43.70;100615.25;4966584;28;20053;-51
2023/09/06 10:13:08;;;;;;;12.35;6.18;;;;;;;31.32;44.02;100605.25;4964461;28;20082;-49
2023/09/06 10:15:37;;;;;;;9.02;6.03;;;;;;;31.45;43.83;100605.13;4966354;28;20708;-48
2023/09/06 10:18:05;;;;;;;;;;;;;;;31.56;43.85;100597.06;4967903;28;20074;-54
2023/09/06 10:20:34;;;;;;;9.70;6.53;;;;;;;31.60;43.46;100608.38;4961994;28;19941;-47
2023/09/06 10:23:04;;;;;;;10.20;6.18;;;;;;;31.62;42.96;100603.72;4960802;28;20062;-47
2023/09/06 10:25:32;;;;;;;9.95;6.43;;;;;;;31.67;42.65;100593.47;4967241;28;20061;-47
2023/09/06 10:27:59;;;;;;;10.05;6.03;;;;;;;31.67;42.56;100598.81;4965207;28;20050;-50
2023/09/06 10:36:13;;;;;;;9.50;5.85;;;;;;;31.60;41.99;100592.31;5039596;27;22056;-47
2023/09/06 10:41:37;;;;;;;6.95;5.25;;;;;;;31.54;41.44;100591.81;5095602;27;20389;-47
2023/09/06 10:44:06;;;;;;;7.72;4.95;;;;;;;31.61;41.73;100594.00;5033203;28;20056;-44
2023/09/06 10:46:35;;;;;;;6.40;4.47;;;;;;;31.73;41.20;100589.41;5038167;28;20160;-43
2023/09/06 10:49:23;;;;;;;6.18;3.80;;;;;;;31.76;40.26;100587.34;5038864;28;20052;-46
2023/09/06 10:54:38;;;;;;;5.78;4.25;;;;;;;31.71;40.12;100589.53;5067005;27;20123;-51
2023/09/06 10:57:10;;;;;;;6.03;4.15;;;;;;;31.77;40.13;100589.03;5053981;28;20049;-48
2023/09/06 10:59:42;;;;;;;4.88;3.38;;;;;;;31.85;40.38;100582.19;5059838;28;20052;-50
2023/09/06 11:02:26;;;;;;;6.15;3.88;;;;;;;31.90;40.26;100588.88;5056950;28;20076;-50
2023/09/06 11:05:09;;;;;;;5.80;4.68;;;;;;;32.00;40.54;100580.91;5046814;28;20056;-48
2023/09/06 11:07:41;;;;;;;5.88;4.47;;;;;;;32.15;39.92;100577.91;5048165;28;20059;-49
2023/09/06 11:10:22;;;;;;;6.57;4.57;;;;;;;32.26;38.96;100574.28;5052332;28;20142;-46
2023/09/06 11:12:54;;;;;;;4.63;3.38;;;;;;;32.36;39.40;100577.00;5044029;28;20056;-44
2023/09/06 11:15:22;;;;;;;5.47;3.55;;;;;;;32.41;39.19;100569.38;5047514;28;20045;-47
2023/09/06 11:17:52;;;;;;;6.10;4.80;;;;;;;32.47;39.09;100566.22;5046162;28;20049;-45
2023/09/06 11:20:20;;;;;;;10.05;4.47;;;;;;;32.61;39.38;100564.13;5051192;28;20049;-50
2023/09/06 11:22:50;;;;;;;6.72;5.00;;;;;;;32.63;38.30;100567.53;5046323;28;20045;-48
2023/09/06 11:25:18;;;;;;;6.95;4.85;;;;;;;32.45;39.26;100565.44;5043754;28;20060;-48
2023/09/06 11:27:47;;;;;;;8.75;3.72;;;;;;;32.39;38.94;100566.84;5046010;28;20595;-47
2023/09/06 11:30:22;;;;;;;6.57;4.47;;;;;;;32.45;38.73;100573.50;5043462;28;20045;-51
2023/09/06 11:32:51;;;;;;;5.90;3.88;;;;;;;32.49;39.07;100566.94;5051891;28;20463;-51
2023/09/06 11:35:22;;;;;;;5.88;4.35;;;;;;;32.49;39.31;100564.25;5044124;28;20041;-46
2023/09/06 11:37:53;;;;;;;9.88;5.63;;;;;;;32.54;38.27;100564.69;5047242;28;20099;-49
2023/09/06 11:40:22;;;;;;;5.22;3.78;;;;;;;32.62;38.76;100555.13;5069786;28;20044;-49
2023/09/06 11:42:53;;;;;;;6.20;3.83;;;;;;;32.70;38.21;100558.78;5069429;28;20052;-50
2023/09/06 11:45:21;;;;;;;6.85;3.55;;;;;;;32.78;38.20;100554.56;5063457;28;20072;-51